Time;durP1;ratioP1;P1;durP2;ratioP2;P2;SDS_P1;SDS_P2;PMS_P1;PMS_P2;Temp;Humidity;BMP_temperature;BMP_pressure;BME280_temperature;BME280_humidity;BME280_pressure;Samples;Min_cycle;Max_cycle;Signal;HPM_P1;HPM_P2
2021/01/11 00:02:22;;;;;;;33.28;18.00;;;5.50;97.90;;;;;;5073945;28;20408;-69
2021/01/11 00:04:48;;;;;;;35.35;17.90;;;5.40;97.90;;;;;;5073588;28;20036;-70
2021/01/11 00:07:13;;;;;;;34.65;18.73;;;5.30;97.90;;;;;;5073513;28;20036;-68
2021/01/11 00:09:39;;;;;;;36.38;19.10;;;5.40;98.00;;;;;;5073481;28;20020;-71
2021/01/11 00:12:05;;;;;;;31.42;17.58;;;5.30;97.90;;;;;;5074083;28;20021;-70
2021/01/11 00:14:31;;;;;;;32.50;18.30;;;5.40;98.00;;;;;;5073147;28;20518;-70
2021/01/11 00:16:57;;;;;;;33.60;18.70;;;5.30;97.90;;;;;;5073513;28;20044;-69
2021/01/11 00:19:23;;;;;;;41.42;19.00;;;5.30;97.90;;;;;;5073516;28;20025;-70
2021/01/11 00:21:49;;;;;;;34.78;18.60;;;5.30;97.90;;;;;;5072271;28;20406;-70
2021/01/11 00:24:15;;;;;;;42.67;19.17;;;5.20;97.90;;;;;;5074803;28;20016;-70
2021/01/11 00:26:47;;;;;;;37.42;19.33;;;5.20;98.10;;;;;;5073152;28;20032;-69
2021/01/11 00:29:13;;;;;;;39.38;18.45;;;5.20;98.10;;;;;;5072235;28;20396;-69
2021/01/11 00:31:39;;;;;;;35.47;17.83;;;5.20;98.20;;;;;;5073007;28;20040;-70
2021/01/11 00:34:04;;;;;;;40.75;19.42;;;5.30;98.20;;;;;;5073269;28;20034;-70
2021/01/11 00:36:30;;;;;;;40.85;20.02;;;5.30;98.20;;;;;;5073111;28;20366;-70
2021/01/11 00:38:56;;;;;;;40.22;21.35;;;5.30;98.10;;;;;;5074574;28;20049;-70
2021/01/11 00:41:22;;;;;;;45.65;21.30;;;5.30;98.30;;;;;;5072987;28;20454;-70
2021/01/11 00:43:49;;;;;;;40.70;21.33;;;5.30;98.30;;;;;;5061275;28;20041;-71
2021/01/11 00:46:25;;;;;;;36.90;20.67;;;5.30;98.30;;;;;;5059545;28;20104;-70
2021/01/11 00:48:51;;;;;;;43.28;20.98;;;5.20;98.40;;;;;;5072515;28;20473;-69
2021/01/11 00:51:17;;;;;;;40.30;20.33;;;5.40;98.40;;;;;;5074176;28;20051;-69
2021/01/11 00:53:44;;;;;;;44.13;21.13;;;5.30;98.20;;;;;;5072531;28;20039;-68
2021/01/11 00:56:17;;;;;;;43.75;20.90;;;5.30;98.30;;;;;;5072742;28;20071;-71
2021/01/11 00:58:43;;;;;;;37.42;20.92;;;5.40;98.20;;;;;;5072516;28;20318;-69
2021/01/11 01:01:10;;;;;;;40.80;20.52;;;5.30;98.30;;;;;;5071475;28;20040;-69
2021/01/11 01:03:37;;;;;;;41.42;21.52;;;5.30;98.40;;;;;;5072401;28;20021;-70
2021/01/11 01:06:04;;;;;;;46.75;22.33;;;5.30;98.50;;;;;;5074105;28;20016;-70
2021/01/11 01:08:31;;;;;;;41.08;20.92;;;5.30;98.30;;;;;;5072364;28;20032;-70
2021/01/11 01:10:57;;;;;;;37.28;19.70;;;5.30;98.40;;;;;;5060090;28;20118;-69
2021/01/11 01:13:23;;;;;;;38.85;20.17;;;5.30;98.30;;;;;;5051328;28;20049;-69
2021/01/11 01:15:48;;;;;;;42.78;22.13;;;5.20;98.40;;;;;;5055494;28;20117;-69
2021/01/11 01:18:14;;;;;;;40.45;20.38;;;5.30;98.30;;;;;;5073536;28;20043;-70
2021/01/11 01:20:40;;;;;;;41.08;20.40;;;5.40;98.30;;;;;;5053600;28;20033;-69
2021/01/11 01:23:05;;;;;;;41.53;20.88;;;5.30;98.30;;;;;;5052256;28;20446;-70
2021/01/11 01:25:31;;;;;;;44.92;22.25;;;5.40;98.30;;;;;;5052195;28;20035;-68
2021/01/11 01:27:57;;;;;;;43.85;22.05;;;5.30;98.20;;;;;;5056550;28;20371;-69
2021/01/11 01:30:22;;;;;;;43.38;21.45;;;5.40;98.30;;;;;;5073713;28;20029;-69
2021/01/11 01:32:48;;;;;;;42.58;21.33;;;5.40;98.30;;;;;;5052393;28;20033;-69
2021/01/11 01:35:14;;;;;;;40.75;21.02;;;5.40;98.30;;;;;;5052063;28;20099;-70
2021/01/11 01:37:39;;;;;;;42.42;21.25;;;5.30;98.30;;;;;;5050717;28;20125;-69
2021/01/11 01:40:06;;;;;;;43.58;20.92;;;5.30;98.40;;;;;;5057522;28;20412;-70
2021/01/11 01:42:32;;;;;;;42.47;20.40;;;5.20;98.30;;;;;;5072018;28;20016;-69
2021/01/11 01:44:57;;;;;;;46.55;20.58;;;5.30;98.30;;;;;;5073460;28;20021;-69
2021/01/11 01:47:23;;;;;;;42.03;21.55;;;5.20;98.40;;;;;;5071115;28;20047;-68
2021/01/11 01:49:50;;;;;;;42.47;20.40;;;5.30;98.40;;;;;;5071780;28;20469;-69
2021/01/11 01:52:18;;;;;;;51.72;20.50;;;5.10;98.50;;;;;;5071589;28;20476;-68
2021/01/11 01:54:43;;;;;;;;;;;5.20;98.50;;;;;;5072308;28;20039;-68
2021/01/11 01:57:09;;;;;;;42.20;20.00;;;5.10;98.50;;;;;;5073183;28;19900;-68
2021/01/11 01:59:35;;;;;;;36.90;20.27;;;5.20;98.60;;;;;;5071824;28;20032;-69
2021/01/11 02:02:01;;;;;;;46.28;21.25;;;5.10;98.60;;;;;;5070710;28;20096;-69
2021/01/11 02:04:26;;;;;;;40.15;20.83;;;5.20;98.70;;;;;;5070184;28;20029;-70
2021/01/11 02:07:04;;;;;;;33.08;19.15;;;5.10;98.80;;;;;;5071646;28;20033;-69
2021/01/11 02:10:02;;;;;;;38.70;19.93;;;5.00;98.80;;;;;;5071276;28;20024;-69
2021/01/11 02:12:43;;;;;;;39.63;20.88;;;5.10;98.80;;;;;;5071640;28;20016;-69
2021/01/11 02:15:16;;;;;;;39.13;20.77;;;5.10;99.10;;;;;;5073013;28;20020;-70
2021/01/11 02:17:59;;;;;;;41.40;21.55;;;5.20;99.00;;;;;;5071756;28;20391;-69
2021/01/11 02:20:36;;;;;;;46.28;21.17;;;5.30;98.80;;;;;;5055072;28;20048;-69
2021/01/11 02:23:19;;;;;;;42.38;22.10;;;5.30;98.70;;;;;;5064908;28;20416;-68
2021/01/11 02:26:08;;;;;;;38.45;21.13;;;5.30;98.60;;;;;;5071478;28;20040;-70
2021/01/11 02:28:58;;;;;;;39.83;20.65;;;5.30;98.60;;;;;;5071429;28;20115;-68
2021/01/11 02:31:25;;;;;;;47.60;21.27;;;5.30;98.80;;;;;;5071747;28;20041;-68
2021/01/11 02:33:56;;;;;;;40.23;21.37;;;5.30;98.40;;;;;;5066900;28;20458;-68
2021/01/11 02:36:22;;;;;;;41.38;21.23;;;5.30;98.50;;;;;;5053019;28;20024;-68
2021/01/11 02:38:51;;;;;;;38.28;20.80;;;5.30;98.40;;;;;;5070643;28;20186;-69
2021/01/11 02:41:17;;;;;;;41.35;22.10;;;5.20;98.60;;;;;;5055493;28;20043;-69
2021/01/11 02:43:43;;;;;;;40.10;21.13;;;5.10;98.50;;;;;;5050088;28;20037;-68
2021/01/11 02:46:09;;;;;;;41.92;21.45;;;5.20;98.50;;;;;;5057363;28;20097;-68
2021/01/11 02:48:37;;;;;;;41.42;22.08;;;5.20;98.40;;;;;;5070944;28;20035;-70
2021/01/11 02:51:21;;;;;;;43.75;22.55;;;5.20;98.50;;;;;;5072757;28;20073;-68
2021/01/11 02:53:55;;;;;;;44.92;22.30;;;5.20;98.50;;;;;;5070163;28;20437;-68
2021/01/11 02:56:32;;;;;;;47.05;23.88;;;5.30;98.50;;;;;;5054886;28;20029;-69
2021/01/11 02:59:06;;;;;;;43.72;23.27;;;5.20;98.40;;;;;;5051124;28;20044;-68
2021/01/11 03:01:38;;;;;;;42.40;22.20;;;5.20;98.50;;;;;;5060303;28;20055;-70
2021/01/11 03:04:05;;;;;;;43.55;22.25;;;5.20;98.40;;;;;;5065901;28;20458;-71
2021/01/11 03:06:32;;;;;;;49.40;23.40;;;5.20;98.40;;;;;;5051288;28;20046;-69
2021/01/11 03:09:07;;;;;;;53.08;24.42;;;5.20;98.40;;;;;;5052487;28;20119;-69
2021/01/11 03:11:36;;;;;;;46.75;23.75;;;5.30;98.40;;;;;;5068880;28;20028;-70
2021/01/11 03:14:05;;;;;;;52.80;25.13;;;5.30;98.40;;;;;;5071145;28;20150;-68
2021/01/11 03:16:31;;;;;;;48.10;22.75;;;5.20;98.40;;;;;;5071089;28;20462;-68
2021/01/11 03:18:56;;;;;;;44.88;22.85;;;5.20;98.30;;;;;;5074655;28;20032;-69
2021/01/11 03:21:22;;;;;;;46.90;24.02;;;5.20;98.30;;;;;;5075906;28;20058;-69
2021/01/11 03:23:48;;;;;;;49.88;23.30;;;5.20;98.30;;;;;;5074380;28;20051;-69
2021/01/11 03:26:24;;;;;;;46.17;22.48;;;5.20;98.30;;;;;;5073353;28;20029;-68
2021/01/11 03:28:50;;;;;;;42.92;21.67;;;5.20;98.20;;;;;;5074144;28;20037;-69
2021/01/11 03:31:15;;;;;;;41.58;21.30;;;5.10;98.10;;;;;;5074449;28;20055;-69
2021/01/11 03:33:41;;;;;;;42.63;21.60;;;5.10;98.20;;;;;;5074121;28;20028;-69
2021/01/11 03:36:07;;;;;;;46.58;22.30;;;5.10;98.50;;;;;;5075691;28;20478;-69
2021/01/11 03:38:32;;;;;;;42.67;20.02;;;5.20;98.20;;;;;;5072216;28;20060;-68
2021/01/11 03:41:04;;;;;;;37.70;19.60;;;5.20;98.20;;;;;;5074238;28;20044;-68
2021/01/11 03:43:31;;;;;;;39.47;20.15;;;5.30;98.20;;;;;;5074177;28;20028;-68
2021/01/11 03:45:56;;;;;;;34.72;18.70;;;5.20;98.10;;;;;;5072984;28;20029;-68
2021/01/11 03:48:23;;;;;;;39.42;19.08;;;5.20;98.00;;;;;;5075366;28;20082;-68
2021/01/11 03:50:49;;;;;;;39.47;18.98;;;5.20;98.00;;;;;;5073692;28;20087;-69
2021/01/11 03:53:15;;;;;;;38.95;18.70;;;5.20;98.00;;;;;;5073776;28;20438;-69
2021/01/11 03:55:42;;;;;;;40.67;19.00;;;5.20;98.00;;;;;;5073673;28;20116;-68
2021/01/11 03:58:08;;;;;;;36.13;17.70;;;5.30;98.00;;;;;;5074070;28;20045;-69
2021/01/11 04:00:35;;;;;;;39.55;18.02;;;5.20;98.00;;;;;;5073620;28;20099;-69
2021/01/11 04:03:04;;;;;;;37.05;18.90;;;5.30;98.00;;;;;;5075333;28;20020;-69
2021/01/11 04:05:30;;;;;;;33.97;17.75;;;5.20;98.00;;;;;;5073382;28;20060;-68
2021/01/11 04:07:56;;;;;;;33.28;16.75;;;5.20;98.00;;;;;;5073799;28;20082;-69
2021/01/11 04:10:22;;;;;;;39.40;18.15;;;5.20;98.00;;;;;;5073481;28;20033;-68
2021/01/11 04:12:47;;;;;;;40.90;17.90;;;5.20;98.30;;;;;;5073728;28;20037;-69
2021/01/11 04:15:14;;;;;;;34.83;18.10;;;5.20;98.30;;;;;;5074924;28;20035;-69
2021/01/11 04:17:40;;;;;;;40.80;17.83;;;5.20;98.00;;;;;;5073290;28;20033;-68
2021/01/11 04:20:06;;;;;;;34.72;18.55;;;5.30;98.00;;;;;;5072205;28;20040;-68
2021/01/11 04:22:32;;;;;;;36.53;16.75;;;5.40;98.30;;;;;;5073246;28;20041;-68
2021/01/11 04:24:57;;;;;;;37.13;17.75;;;5.30;97.90;;;;;;5073137;28;20430;-69
2021/01/11 04:27:23;;;;;;;33.03;17.42;;;5.30;98.00;;;;;;5074284;28;20029;-69
2021/01/11 04:29:49;;;;;;;34.65;17.05;;;5.10;98.10;;;;;;5072013;28;20044;-70
2021/01/11 04:32:15;;;;;;;30.80;15.77;;;5.10;98.10;;;;;;5073233;28;20033;-69
2021/01/11 04:34:40;;;;;;;30.63;15.52;;;5.20;98.20;;;;;;5073033;28;20052;-68
2021/01/11 04:37:10;;;;;;;34.83;17.30;;;5.20;98.00;;;;;;5072981;28;20097;-70
2021/01/11 04:39:36;;;;;;;32.97;16.35;;;5.20;98.10;;;;;;5072458;28;20053;-70
2021/01/11 04:42:08;;;;;;;37.72;18.80;;;5.20;98.20;;;;;;5074421;28;20024;-69
2021/01/11 04:44:36;;;;;;;34.70;16.70;;;5.10;98.00;;;;;;5072920;28;20036;-69
2021/01/11 04:47:03;;;;;;;31.92;15.82;;;5.10;98.20;;;;;;5071929;28;20102;-70
2021/01/11 04:49:29;;;;;;;30.95;15.32;;;5.10;98.20;;;;;;5072703;28;20043;-69
2021/01/11 04:51:56;;;;;;;30.58;15.32;;;5.20;98.10;;;;;;5073085;28;20025;-69
2021/01/11 04:54:22;;;;;;;31.48;16.05;;;5.20;98.00;;;;;;5073974;28;20036;-69
2021/01/11 04:56:50;;;;;;;31.77;16.73;;;5.30;97.90;;;;;;5072569;28;20362;-68
2021/01/11 04:59:20;;;;;;;28.92;14.85;;;5.20;98.00;;;;;;5072724;28;20071;-68
2021/01/11 05:01:52;;;;;;;27.85;15.48;;;5.20;98.10;;;;;;5071404;28;20024;-68
2021/01/11 05:04:18;;;;;;;27.13;14.25;;;5.20;98.00;;;;;;5072838;28;20117;-68
2021/01/11 05:06:48;;;;;;;28.95;14.38;;;5.20;98.00;;;;;;5072371;28;20108;-70
2021/01/11 05:09:16;;;;;;;26.80;14.00;;;5.20;98.00;;;;;;5073782;28;20036;-71
2021/01/11 05:11:42;;;;;;;30.42;15.70;;;5.10;98.10;;;;;;5071910;28;20032;-68
2021/01/11 05:14:15;;;;;;;29.35;14.43;;;5.20;98.10;;;;;;5071260;28;20435;-69
2021/01/11 05:16:40;;;;;;;25.50;14.10;;;5.20;98.00;;;;;;5071123;28;20033;-69
2021/01/11 05:19:23;;;;;;;29.55;14.10;;;5.20;97.90;;;;;;5072247;28;20039;-68
2021/01/11 05:21:49;;;;;;;27.35;13.55;;;5.10;97.90;;;;;;5071999;28;20028;-70
2021/01/11 05:24:31;;;;;;;29.90;13.95;;;5.10;97.90;;;;;;5073624;28;20021;-68
2021/01/11 05:26:59;;;;;;;26.50;14.15;;;5.10;97.90;;;;;;5072107;28;20036;-69
2021/01/11 05:29:25;;;;;;;29.88;13.88;;;5.20;98.00;;;;;;5072041;28;20339;-69
2021/01/11 05:31:53;;;;;;;28.67;13.52;;;5.20;97.90;;;;;;5072457;28;20051;-69
2021/01/11 05:34:18;;;;;;;28.90;13.45;;;5.20;97.90;;;;;;5071932;28;20575;-69
2021/01/11 05:36:46;;;;;;;24.08;12.55;;;5.20;97.90;;;;;;5070862;28;20055;-68
2021/01/11 05:39:12;;;;;;;26.50;13.05;;;5.20;97.90;;;;;;5072535;28;20097;-69
2021/01/11 05:41:41;;;;;;;26.85;12.63;;;5.20;98.00;;;;;;5071768;28;20037;-70
2021/01/11 05:44:15;;;;;;;23.48;12.52;;;5.20;98.00;;;;;;5071714;28;20064;-69
2021/01/11 05:46:42;;;;;;;27.02;12.02;;;5.30;98.00;;;;;;5071781;28;20032;-68
2021/01/11 05:49:09;;;;;;;23.93;12.47;;;5.30;98.00;;;;;;5071722;28;20101;-69
2021/01/11 05:51:37;;;;;;;21.00;12.13;;;5.30;98.00;;;;;;5071793;28;20722;-70
2021/01/11 05:54:04;;;;;;;26.05;13.30;;;5.30;98.00;;;;;;5073397;28;20024;-70
2021/01/11 05:56:57;;;;;;;28.33;13.38;;;5.30;98.00;;;;;;5071492;28;20078;-70
2021/01/11 05:59:24;;;;;;;24.35;11.82;;;5.30;97.90;;;;;;5071520;28;20041;-69
2021/01/11 06:01:58;;;;;;;25.60;11.20;;;5.30;97.90;;;;;;5071486;28;20123;-69
2021/01/11 06:04:25;;;;;;;20.95;12.13;;;5.30;98.00;;;;;;5071605;28;20032;-69
2021/01/11 06:06:54;;;;;;;21.65;11.43;;;5.30;97.90;;;;;;5071698;28;20500;-69
2021/01/11 06:09:21;;;;;;;21.60;12.05;;;5.30;97.90;;;;;;5073001;28;20029;-69
2021/01/11 06:11:50;;;;;;;23.05;11.98;;;5.30;97.90;;;;;;5071227;28;20064;-69
2021/01/11 06:14:19;;;;;;;22.60;11.55;;;5.30;98.00;;;;;;5070524;28;20472;-68
2021/01/11 06:16:44;;;;;;;25.83;13.05;;;5.40;98.00;;;;;;5071444;28;20037;-70
2021/01/11 06:19:10;;;;;;;21.13;12.20;;;5.20;97.90;;;;;;5071559;28;20046;-68
2021/01/11 06:21:35;;;;;;;22.27;12.07;;;5.30;98.30;;;;;;5071247;28;20413;-68
2021/01/11 06:24:15;;;;;;;19.63;10.88;;;5.30;98.40;;;;;;5073030;28;20023;-69
2021/01/11 06:26:42;;;;;;;23.70;12.15;;;5.30;98.00;;;;;;5070537;28;20037;-69
2021/01/11 06:29:30;;;;;;;19.08;11.55;;;5.20;98.00;;;;;;5071313;28;20035;-69
2021/01/11 06:31:58;;;;;;;25.38;11.73;;;5.10;98.10;;;;;;5070528;28;20041;-69
2021/01/11 06:34:37;;;;;;;24.98;11.85;;;5.20;98.10;;;;;;5071272;28;20127;-68
2021/01/11 06:37:19;;;;;;;28.50;11.73;;;5.20;98.10;;;;;;5071129;28;20037;-69
2021/01/11 06:39:46;;;;;;;29.67;13.40;;;5.20;98.30;;;;;;5071000;28;20052;-68
2021/01/11 06:42:13;;;;;;;26.27;12.73;;;5.10;98.30;;;;;;5072668;28;20017;-68
2021/01/11 06:44:40;;;;;;;24.15;11.45;;;5.20;98.30;;;;;;5071311;28;20365;-69
2021/01/11 06:47:08;;;;;;;22.83;11.63;;;5.20;98.40;;;;;;5070902;28;20071;-69
2021/01/11 06:49:35;;;;;;;24.70;12.55;;;5.10;98.30;;;;;;5070540;28;20633;-70
2021/01/11 06:52:06;;;;;;;25.52;12.48;;;5.20;98.40;;;;;;5073905;28;20024;-68
2021/01/11 06:54:38;;;;;;;23.90;12.85;;;5.30;98.30;;;;;;5074739;28;20032;-69
2021/01/11 06:57:17;;;;;;;23.65;11.57;;;5.30;98.30;;;;;;5075313;28;20017;-69
2021/01/11 06:59:47;;;;;;;22.08;11.30;;;5.30;98.30;;;;;;5074907;28;20465;-70
2021/01/11 07:02:24;;;;;;;28.02;11.98;;;5.20;98.30;;;;;;5073694;28;20098;-69
2021/01/11 07:04:50;;;;;;;27.00;11.98;;;5.30;98.30;;;;;;5074844;28;20103;-68
2021/01/11 07:07:18;;;;;;;24.63;11.43;;;5.40;98.10;;;;;;5074730;28;20438;-69
2021/01/11 07:09:56;;;;;;;22.02;12.30;;;5.20;98.10;;;;;;5074549;28;20369;-70
2021/01/11 07:12:23;;;;;;;24.23;12.80;;;5.20;98.20;;;;;;5076267;28;20052;-70
2021/01/11 07:15:01;;;;;;;28.40;11.25;;;5.20;98.20;;;;;;5074575;28;20232;-70
2021/01/11 07:17:44;;;;;;;23.63;12.65;;;5.20;98.20;;;;;;5074249;28;20109;-70
2021/01/11 07:20:14;;;;;;;25.23;12.18;;;5.20;98.30;;;;;;5074419;28;20037;-68
2021/01/11 07:22:44;;;;;;;23.30;12.50;;;5.20;98.30;;;;;;5074291;28;20028;-68
2021/01/11 07:25:24;;;;;;;23.67;11.98;;;5.20;98.60;;;;;;5074213;28;20365;-69
2021/01/11 07:27:57;;;;;;;23.35;12.43;;;5.20;98.40;;;;;;5074169;28;20040;-72
2021/01/11 07:30:24;;;;;;;27.58;12.35;;;5.10;98.40;;;;;;5075604;28;20025;-69
2021/01/11 07:32:50;;;;;;;22.80;11.48;;;5.20;98.20;;;;;;5074576;28;20033;-70
2021/01/11 07:35:16;;;;;;;27.15;12.30;;;5.20;97.90;;;;;;5074192;28;20074;-69
2021/01/11 07:37:41;;;;;;;23.08;12.40;;;5.30;98.00;;;;;;5072760;28;20029;-69
2021/01/11 07:40:08;;;;;;;25.90;12.88;;;5.30;97.80;;;;;;5073980;28;20091;-70
2021/01/11 07:42:35;;;;;;;22.13;12.93;;;5.30;97.70;;;;;;5073688;28;20020;-70
2021/01/11 07:45:11;;;;;;;26.48;12.32;;;5.20;97.80;;;;;;5075557;28;20253;-69
2021/01/11 07:47:41;;;;;;;25.42;12.55;;;5.20;97.60;;;;;;5073730;28;20385;-69
2021/01/11 07:50:08;;;;;;;27.73;13.35;;;5.20;97.60;;;;;;5073669;28;20044;-69
2021/01/11 07:52:34;;;;;;;29.75;12.75;;;5.20;97.70;;;;;;5073907;28;20103;-70
2021/01/11 07:55:01;;;;;;;24.00;12.27;;;5.10;97.70;;;;;;5074039;28;20059;-69
2021/01/11 07:57:28;;;;;;;22.95;12.32;;;5.30;97.70;;;;;;5074061;28;20021;-69
2021/01/11 08:00:10;;;;;;;24.33;12.82;;;5.20;97.80;;;;;;5075674;28;20032;-69
2021/01/11 08:02:36;;;;;;;25.02;12.63;;;5.20;97.70;;;;;;5071887;28;20029;-70
2021/01/11 08:05:03;;;;;;;21.65;12.50;;;5.20;97.90;;;;;;5073600;28;20117;-69
2021/01/11 08:07:33;;;;;;;27.60;12.90;;;5.20;97.70;;;;;;5073615;28;20040;-69
2021/01/11 08:10:00;;;;;;;22.85;12.00;;;5.20;97.50;;;;;;5073511;28;20032;-67
2021/01/11 08:12:27;;;;;;;26.85;13.45;;;5.20;97.60;;;;;;5073365;28;20167;-68
2021/01/11 08:15:04;;;;;;;25.85;13.18;;;5.20;97.50;;;;;;5074144;28;20021;-68
2021/01/11 08:17:32;;;;;;;26.83;12.43;;;5.20;97.80;;;;;;5073182;28;20522;-68
2021/01/11 08:19:59;;;;;;;26.80;13.32;;;5.20;97.80;;;;;;5073344;28;20142;-74
2021/01/11 08:22:28;;;;;;;29.65;14.48;;;5.20;97.60;;;;;;5072184;28;20028;-82
2021/01/11 08:24:55;;;;;;;28.25;13.73;;;5.10;97.80;;;;;;5073348;28;20032;-72
2021/01/11 08:27:39;;;;;;;27.77;12.70;;;5.00;97.90;;;;;;5074674;28;20017;-72
2021/01/11 08:30:11;;;;;;;31.15;15.40;;;5.10;97.80;;;;;;5073195;28;20466;-69
2021/01/11 08:32:38;;;;;;;25.42;13.45;;;5.00;97.80;;;;;;5053717;28;20125;-67
2021/01/11 08:35:08;;;;;;;28.85;13.25;;;5.10;97.90;;;;;;5053107;28;20447;-68
2021/01/11 08:37:34;;;;;;;28.38;14.10;;;5.00;98.00;;;;;;5052577;28;20078;-70
2021/01/11 08:40:07;;;;;;;25.23;13.00;;;5.00;98.00;;;;;;5057765;28;20116;-72
2021/01/11 08:42:34;;;;;;;29.48;14.27;;;5.00;97.90;;;;;;5072769;28;20093;-71
2021/01/11 08:45:26;;;;;;;35.58;14.93;;;4.90;98.10;;;;;;5074346;28;20017;-70
2021/01/11 08:48:15;;;;;;;25.27;12.43;;;5.00;98.10;;;;;;5072885;28;20045;-72
2021/01/11 08:50:57;;;;;;;28.13;12.85;;;5.00;98.10;;;;;;5071570;28;20399;-72
2021/01/11 08:53:33;;;;;;;29.35;13.45;;;5.00;98.10;;;;;;5072030;28;20094;-81
2021/01/11 08:56:12;;;;;;;27.75;13.68;;;5.00;98.10;;;;;;5072269;28;20040;-74
2021/01/11 08:58:48;;;;;;;26.27;13.40;;;5.00;97.90;;;;;;5072629;28;20052;-73
2021/01/11 09:01:16;;;;;;;26.98;12.15;;;4.90;98.00;;;;;;5072478;28;20029;-76
2021/01/11 09:03:49;;;;;;;29.45;13.93;;;5.00;97.90;;;;;;5071386;28;20082;-75
2021/01/11 09:06:44;;;;;;;29.27;13.88;;;5.00;97.80;;;;;;5073850;28;20021;-78
2021/01/11 09:09:15;;;;;;;27.67;13.32;;;5.10;97.80;;;;;;5072568;28;20055;-76
2021/01/11 09:11:43;;;;;;;28.02;12.95;;;5.10;97.60;;;;;;5072274;28;20029;-76
2021/01/11 09:14:14;;;;;;;26.40;13.63;;;5.10;97.60;;;;;;5072056;28;20094;-81
2021/01/11 09:16:45;;;;;;;31.25;13.32;;;5.10;97.50;;;;;;5072615;28;20025;-81
2021/01/11 09:19:16;;;;;;;22.10;11.85;;;5.20;97.60;;;;;;5072087;28;20028;-76
2021/01/11 09:21:43;;;;;;;25.88;12.55;;;5.10;97.20;;;;;;5071318;28;20024;-82
2021/01/11 09:24:11;;;;;;;23.53;11.93;;;5.20;97.30;;;;;;5074445;28;20021;-88
2021/01/11 09:26:38;;;;;;;;;;;5.30;97.30;;;;;;5073030;28;20036;-87
2021/01/11 09:29:06;;;;;;;26.80;12.93;;;5.30;97.10;;;;;;5073127;28;19912;-78
2021/01/11 09:31:32;;;;;;;28.92;12.95;;;5.30;97.20;;;;;;5072235;28;20027;-72
2021/01/11 09:33:58;;;;;;;25.52;12.18;;;5.40;97.30;;;;;;5072019;28;20037;-70
2021/01/11 09:36:24;;;;;;;24.77;12.52;;;5.30;97.00;;;;;;5073594;28;20031;-75
2021/01/11 09:38:50;;;;;;;32.25;13.43;;;5.30;97.10;;;;;;5071471;28;20485;-73
2021/01/11 09:41:17;;;;;;;25.95;12.85;;;5.20;97.20;;;;;;5070260;28;20097;-72
2021/01/11 09:43:43;;;;;;;26.10;12.30;;;5.20;97.30;;;;;;5070694;28;20071;-71
2021/01/11 09:46:10;;;;;;;26.33;11.80;;;5.30;97.30;;;;;;5071622;28;20025;-71
2021/01/11 09:48:36;;;;;;;25.50;12.07;;;5.30;97.20;;;;;;5071353;28;20035;-71
2021/01/11 09:51:02;;;;;;;30.33;13.07;;;5.40;97.10;;;;;;5073149;28;20091;-76
2021/01/11 09:53:28;;;;;;;27.38;12.55;;;5.30;97.20;;;;;;5071006;28;20355;-83
2021/01/11 09:55:54;;;;;;;26.00;11.77;;;5.40;97.10;;;;;;5072425;28;20090;-85
2021/01/11 09:58:20;;;;;;;28.13;12.23;;;5.50;97.10;;;;;;5070771;28;20032;-82
2021/01/11 10:00:45;;;;;;;28.00;13.52;;;5.40;96.90;;;;;;5072737;28;20028;-83
2021/01/11 10:03:11;;;;;;;25.92;11.60;;;5.40;96.80;;;;;;5073476;28;20025;-76
2021/01/11 10:05:37;;;;;;;27.48;12.52;;;5.40;96.70;;;;;;5071785;28;20172;-76
2021/01/11 10:08:03;;;;;;;21.63;11.38;;;5.40;96.70;;;;;;5071809;28;20051;-75
2021/01/11 10:10:28;;;;;;;30.73;12.30;;;5.50;96.70;;;;;;5071992;28;20055;-78
2021/01/11 10:12:54;;;;;;;23.98;11.65;;;5.40;96.70;;;;;;5071928;28;20051;-77
2021/01/11 10:15:20;;;;;;;21.20;10.98;;;5.40;96.80;;;;;;5072937;28;20028;-73
2021/01/11 10:17:46;;;;;;;21.52;11.25;;;5.40;96.80;;;;;;5071474;28;20503;-70
2021/01/11 10:20:12;;;;;;;28.25;12.35;;;5.50;96.90;;;;;;5070233;28;20035;-69
2021/01/11 10:22:38;;;;;;;24.85;12.13;;;5.40;96.70;;;;;;5071257;28;20037;-69
2021/01/11 10:25:06;;;;;;;20.70;11.30;;;5.30;96.70;;;;;;5071628;28;20024;-70
2021/01/11 10:27:31;;;;;;;23.35;11.93;;;5.30;96.70;;;;;;5075107;28;20025;-70
2021/01/11 10:29:57;;;;;;;23.35;11.88;;;5.30;96.80;;;;;;5076972;28;20106;-68
2021/01/11 10:32:23;;;;;;;24.55;11.60;;;5.30;96.80;;;;;;5075351;28;20094;-70
2021/01/11 10:34:48;;;;;;;27.33;11.85;;;5.20;96.90;;;;;;5075528;28;20029;-69
2021/01/11 10:37:14;;;;;;;27.70;13.30;;;5.30;96.90;;;;;;5075070;28;20092;-70
2021/01/11 10:39:40;;;;;;;26.33;11.88;;;5.30;97.00;;;;;;5075179;28;20055;-70
2021/01/11 10:42:06;;;;;;;27.17;11.90;;;5.40;97.00;;;;;;5075708;28;20025;-71
2021/01/11 10:44:32;;;;;;;21.63;11.38;;;5.40;96.90;;;;;;5074969;28;20037;-70
2021/01/11 10:46:59;;;;;;;24.40;11.52;;;5.40;96.90;;;;;;5075160;28;20478;-70
2021/01/11 10:49:25;;;;;;;19.77;10.50;;;5.40;97.20;;;;;;5074856;28;20047;-67
2021/01/11 10:51:53;;;;;;;20.20;10.20;;;5.40;97.00;;;;;;5073911;28;20139;-76
2021/01/11 10:54:19;;;;;;;19.35;10.15;;;5.40;97.00;;;;;;5076269;28;20115;-75
2021/01/11 10:56:50;;;;;;;19.77;9.23;;;5.50;97.00;;;;;;5074967;28;20028;-73
2021/01/11 10:59:16;;;;;;;18.65;9.63;;;5.50;96.90;;;;;;5074675;28;20085;-75
2021/01/11 11:01:42;;;;;;;18.95;10.10;;;5.50;97.10;;;;;;5074768;28;20049;-71
2021/01/11 11:04:08;;;;;;;19.70;9.75;;;5.60;96.90;;;;;;5074609;28;20048;-71
2021/01/11 11:06:33;;;;;;;20.67;10.00;;;5.60;96.80;;;;;;5074603;28;20020;-73
2021/01/11 11:08:59;;;;;;;17.58;8.95;;;5.60;97.00;;;;;;5076276;28;20037;-73
2021/01/11 11:11:25;;;;;;;22.77;9.73;;;5.60;96.90;;;;;;5074801;28;20029;-72
2021/01/11 11:13:51;;;;;;;21.60;9.75;;;5.60;96.80;;;;;;5074532;28;20171;-73
2021/01/11 11:16:16;;;;;;;17.05;9.40;;;5.60;97.00;;;;;;5066352;28;20363;-73
2021/01/11 11:18:43;;;;;;;17.48;8.95;;;5.60;97.20;;;;;;5056364;28;20029;-72
2021/01/11 11:21:10;;;;;;;17.77;8.60;;;5.60;97.10;;;;;;5075836;28;20476;-70
2021/01/11 11:23:36;;;;;;;14.75;8.40;;;5.60;97.00;;;;;;5073330;28;20075;-70
2021/01/11 11:26:03;;;;;;;16.30;8.13;;;5.70;96.90;;;;;;5073498;28;20111;-71
2021/01/11 11:28:33;;;;;;;15.38;8.05;;;5.70;97.00;;;;;;5074845;28;20031;-72
2021/01/11 11:30:59;;;;;;;16.80;8.65;;;5.70;96.80;;;;;;5074224;28;20053;-76
2021/01/11 11:33:25;;;;;;;17.63;8.50;;;5.70;96.90;;;;;;5074551;28;20060;-71
2021/01/11 11:35:51;;;;;;;16.08;8.77;;;5.70;96.90;;;;;;5075599;28;20048;-74
2021/01/11 11:38:21;;;;;;;16.25;8.27;;;5.80;97.10;;;;;;5072575;28;20060;-70
2021/01/11 11:40:47;;;;;;;23.08;10.38;;;5.70;96.90;;;;;;5074051;28;20123;-68
2021/01/11 11:43:14;;;;;;;12.85;7.45;;;5.80;96.80;;;;;;5074141;28;20036;-70
2021/01/11 11:45:42;;;;;;;15.52;6.88;;;5.70;96.80;;;;;;5073895;28;20031;-68
2021/01/11 11:48:07;;;;;;;14.43;7.57;;;5.70;96.90;;;;;;5075299;28;20029;-69
2021/01/11 11:50:33;;;;;;;11.55;6.75;;;5.80;97.10;;;;;;5073702;28;20340;-67
2021/01/11 11:52:59;;;;;;;13.40;7.05;;;5.80;96.80;;;;;;5072807;28;20514;-69
2021/01/11 11:55:24;;;;;;;14.95;8.02;;;5.70;96.80;;;;;;5073971;28;20479;-70
2021/01/11 11:57:50;;;;;;;16.17;7.40;;;5.60;96.80;;;;;;5074097;28;20047;-69
2021/01/11 12:00:17;;;;;;;16.20;8.00;;;5.60;96.80;;;;;;5075184;28;20442;-70
2021/01/11 12:02:44;;;;;;;13.20;7.00;;;5.60;96.90;;;;;;5072630;28;20482;-69
2021/01/11 12:05:15;;;;;;;13.98;7.15;;;5.70;96.80;;;;;;5073671;28;20409;-70
2021/01/11 12:07:41;;;;;;;16.77;7.50;;;5.70;96.70;;;;;;5074041;28;20036;-79
2021/01/11 12:10:10;;;;;;;13.27;6.88;;;5.60;96.60;;;;;;5073829;28;20222;-80
2021/01/11 12:12:35;;;;;;;16.77;7.53;;;5.60;96.70;;;;;;5073452;28;20020;-70
2021/01/11 12:15:04;;;;;;;16.00;7.75;;;5.60;97.00;;;;;;5075150;28;20042;-71
2021/01/11 12:17:30;;;;;;;17.55;8.32;;;5.60;96.80;;;;;;5073347;28;20032;-70
2021/01/11 12:19:56;;;;;;;15.80;8.18;;;5.60;96.70;;;;;;5073366;28;20025;-69
2021/01/11 12:22:22;;;;;;;16.02;7.88;;;5.60;96.70;;;;;;5073178;28;20086;-78
2021/01/11 12:24:48;;;;;;;14.93;7.50;;;5.60;96.60;;;;;;5073422;28;20032;-72
2021/01/11 12:27:14;;;;;;;14.85;7.90;;;5.60;96.70;;;;;;5074845;28;20040;-71
2021/01/11 12:29:39;;;;;;;16.52;7.50;;;5.60;96.70;;;;;;5072937;28;20044;-77
2021/01/11 12:32:06;;;;;;;20.33;9.23;;;5.60;96.80;;;;;;5073286;28;20378;-78
2021/01/11 12:34:39;;;;;;;21.87;9.17;;;5.70;96.80;;;;;;5072664;28;20044;-75
2021/01/11 12:37:06;;;;;;;15.43;8.43;;;5.60;96.70;;;;;;5072059;28;20108;-76
2021/01/11 12:39:31;;;;;;;19.55;8.07;;;5.60;96.70;;;;;;5072972;28;20044;-74
2021/01/11 12:41:57;;;;;;;17.85;8.20;;;5.60;96.70;;;;;;5073592;28;20040;-75
2021/01/11 12:44:23;;;;;;;13.25;7.30;;;5.70;96.70;;;;;;5072917;28;20173;-73
2021/01/11 12:46:48;;;;;;;15.88;8.40;;;5.60;96.60;;;;;;5072750;28;20123;-72